createdAt,value
2019-01-29T00:01:27.153Z,3.40
2019-01-29T00:04:04.691Z,3.70
2019-01-29T00:06:42.246Z,3.67
2019-01-29T00:09:19.744Z,3.63
2019-01-29T00:11:57.302Z,3.87
2019-01-29T00:14:34.839Z,3.77
2019-01-29T00:17:12.355Z,3.33
2019-01-29T00:19:49.867Z,3.60
2019-01-29T00:22:33.278Z,3.47
2019-01-29T00:25:04.941Z,3.80
2019-01-29T00:27:42.488Z,3.57
2019-01-29T00:30:19.996Z,3.60
2019-01-29T00:32:57.873Z,3.37
2019-01-29T00:35:35.374Z,3.90
2019-01-29T00:38:12.897Z,3.30
2019-01-29T00:40:50.404Z,3.17
2019-01-29T00:43:27.942Z,3.10
2019-01-29T00:46:05.511Z,3.00
2019-01-29T00:48:42.974Z,2.80
2019-01-29T00:51:20.505Z,3.00
2019-01-29T00:53:58.037Z,3.00
2019-01-29T00:56:35.533Z,2.67
2019-01-29T00:59:13.060Z,3.03
2019-01-29T01:01:50.547Z,2.90
2019-01-29T01:04:28.066Z,2.90
2019-01-29T01:07:05.562Z,3.27
2019-01-29T01:09:43.081Z,2.93
2019-01-29T01:12:20.603Z,3.10
2019-01-29T01:14:58.161Z,3.40
2019-01-29T01:17:35.633Z,3.73
2019-01-29T01:20:16.309Z,3.83
2019-01-29T01:22:53.858Z,3.80
2019-01-29T01:25:31.356Z,4.40
2019-01-29T01:28:08.881Z,4.50
2019-01-29T01:30:46.487Z,4.00
2019-01-29T01:33:23.925Z,3.90
2019-01-29T01:36:01.425Z,3.73
2019-01-29T01:38:38.960Z,3.90
2019-01-29T01:41:16.494Z,4.00
2019-01-29T01:43:54.045Z,4.20
2019-01-29T01:46:31.551Z,4.40
2019-01-29T01:49:09.073Z,3.90
2019-01-29T01:51:46.575Z,3.40
2019-01-29T01:54:24.087Z,3.20
2019-01-29T01:57:01.579Z,3.57
2019-01-29T01:59:39.137Z,4.73
2019-01-29T02:02:16.645Z,4.07
2019-01-29T02:04:54.169Z,4.30
2019-01-29T02:07:31.674Z,4.70
2019-01-29T02:10:13.853Z,3.93
2019-01-29T02:12:51.375Z,4.37
2019-01-29T02:15:28.903Z,3.80
2019-01-29T02:18:06.433Z,3.90
2019-01-29T02:20:44.287Z,3.70
2019-01-29T02:23:21.812Z,4.20
2019-01-29T02:25:59.307Z,3.90
2019-01-29T02:28:36.896Z,3.97
2019-01-29T02:31:14.421Z,4.30
2019-01-29T02:33:51.936Z,3.77
2019-01-29T02:36:29.446Z,4.77
2019-01-29T02:39:09.365Z,3.90
2019-01-29T02:41:46.893Z,3.63
2019-01-29T02:44:24.441Z,3.67
2019-01-29T02:47:01.921Z,2.37
2019-01-29T02:49:39.437Z,2.80
2019-01-29T02:52:16.944Z,2.90
2019-01-29T02:54:54.509Z,2.30
2019-01-29T02:57:32.000Z,2.27
2019-01-29T03:00:13.469Z,2.83
2019-01-29T03:02:51.003Z,2.40
2019-01-29T03:05:28.524Z,2.20
2019-01-29T03:08:06.038Z,2.53
2019-01-29T03:10:43.565Z,2.70
2019-01-29T03:13:21.086Z,2.70
2019-01-29T03:15:58.594Z,2.53
2019-01-29T03:18:36.138Z,2.37
2019-01-29T03:21:13.634Z,2.63
2019-01-29T03:23:51.148Z,2.70
2019-01-29T03:26:28.631Z,2.70
2019-01-29T03:29:06.155Z,2.47
2019-01-29T03:31:43.643Z,2.83
2019-01-29T03:34:21.164Z,2.60
2019-01-29T03:36:58.661Z,2.50
2019-01-29T03:39:36.195Z,2.57
2019-01-29T03:42:13.675Z,3.37
2019-01-29T03:44:51.199Z,2.60
2019-01-29T03:47:28.690Z,2.47
2019-01-29T03:50:07.024Z,2.73
2019-01-29T03:52:44.540Z,2.47
2019-01-29T03:55:22.061Z,2.50
2019-01-29T03:57:59.544Z,2.90
2019-01-29T04:00:37.073Z,2.83
2019-01-29T04:03:14.639Z,2.73
2019-01-29T04:05:52.160Z,2.70
2019-01-29T04:08:29.665Z,3.00
2019-01-29T04:11:07.194Z,3.10
2019-01-29T04:13:44.709Z,2.80
2019-01-29T04:16:22.256Z,2.80
2019-01-29T04:18:59.800Z,3.13
2019-01-29T04:21:37.295Z,2.73
2019-01-29T04:24:14.805Z,3.10
2019-01-29T04:26:52.313Z,2.87
2019-01-29T04:29:29.811Z,3.57
2019-01-29T04:32:07.320Z,3.50
2019-01-29T04:34:44.840Z,4.87
2019-01-29T04:37:22.338Z,3.23
2019-01-29T04:39:59.892Z,3.17
2019-01-29T04:42:37.389Z,3.03
2019-01-29T04:45:15.801Z,3.30
2019-01-29T04:47:53.414Z,2.90
2019-01-29T04:50:30.946Z,3.77
2019-01-29T04:53:08.446Z,2.97
2019-01-29T04:55:45.979Z,3.40
2019-01-29T04:58:23.469Z,3.20
2019-01-29T05:01:00.974Z,3.30
2019-01-29T05:03:38.486Z,3.50
2019-01-29T05:06:15.989Z,3.63
2019-01-29T05:08:53.491Z,3.60
2019-01-29T05:11:31.092Z,4.00
2019-01-29T05:14:08.855Z,3.73
2019-01-29T05:16:46.409Z,4.37
2019-01-29T05:19:23.969Z,3.90
2019-01-29T05:22:01.482Z,3.80
2019-01-29T05:24:39.019Z,3.80
2019-01-29T05:27:16.721Z,3.20
2019-01-29T05:29:54.255Z,3.47
2019-01-29T05:32:31.764Z,3.67
2019-01-29T05:35:09.846Z,3.80
2019-01-29T05:37:47.331Z,3.37
2019-01-29T05:40:26.241Z,3.67
2019-01-29T05:43:03.739Z,3.40
2019-01-29T05:45:41.256Z,3.33
2019-01-29T05:48:18.782Z,4.00
2019-01-29T05:50:56.323Z,3.97
2019-01-29T05:53:33.838Z,3.47
2019-01-29T05:56:11.382Z,3.70
2019-01-29T05:58:48.865Z,3.80
2019-01-29T06:01:26.376Z,4.03
2019-01-29T06:04:03.889Z,4.07
2019-01-29T06:06:41.408Z,3.87
2019-01-29T06:09:18.918Z,3.83
2019-01-29T06:11:56.433Z,3.70
2019-01-29T06:14:33.938Z,3.70
2019-01-29T06:17:11.487Z,3.57
2019-01-29T06:19:49.030Z,4.17
2019-01-29T06:22:26.538Z,4.23
2019-01-29T06:25:04.105Z,4.60
2019-01-29T06:27:41.593Z,4.00
2019-01-29T06:30:20.590Z,4.57
2019-01-29T06:32:58.080Z,4.23
2019-01-29T06:35:35.623Z,4.20
2019-01-29T06:38:13.141Z,4.90
2019-01-29T06:40:50.658Z,4.73
2019-01-29T06:43:28.211Z,5.13
2019-01-29T06:46:05.705Z,4.30
2019-01-29T06:48:43.220Z,4.40
2019-01-29T06:51:20.743Z,4.70
2019-01-29T06:53:58.248Z,4.57
2019-01-29T06:56:35.756Z,4.80
2019-01-29T06:59:13.262Z,4.03
2019-01-29T07:01:50.800Z,4.30
2019-01-29T07:04:28.305Z,4.43
2019-01-29T07:07:05.819Z,4.10
2019-01-29T07:09:43.315Z,4.10
2019-01-29T07:12:20.832Z,4.73
2019-01-29T07:14:58.359Z,4.53
2019-01-29T07:17:38.589Z,3.73
2019-01-29T07:20:16.328Z,4.50
2019-01-29T07:22:53.844Z,4.47
2019-01-29T07:25:31.382Z,4.60
2019-01-29T07:28:08.873Z,4.73
2019-01-29T07:30:46.403Z,5.00
2019-01-29T07:33:23.916Z,4.23
2019-01-29T07:36:01.429Z,4.73
2019-01-29T07:38:38.926Z,4.73
2019-01-29T07:41:16.473Z,5.23
2019-01-29T07:43:53.989Z,5.23
2019-01-29T07:46:31.526Z,5.10
2019-01-29T07:49:09.043Z,5.40
2019-01-29T07:51:46.562Z,4.67
2019-01-29T07:54:24.088Z,5.47
2019-01-29T07:57:01.621Z,5.40
2019-01-29T07:59:39.137Z,5.03
2019-01-29T08:02:16.666Z,5.30
2019-01-29T08:04:54.174Z,4.97
2019-01-29T08:07:31.739Z,5.00
2019-01-29T08:10:09.806Z,4.80
2019-01-29T08:12:47.477Z,4.87
2019-01-29T08:15:24.983Z,4.60
2019-01-29T08:18:02.533Z,4.80
2019-01-29T08:20:40.025Z,4.20
2019-01-29T08:23:17.546Z,4.10
2019-01-29T08:25:55.071Z,4.00
2019-01-29T08:28:32.574Z,5.07
2019-01-29T08:31:10.092Z,4.47
2019-01-29T08:33:47.594Z,4.47
2019-01-29T08:36:25.124Z,5.00
2019-01-29T08:39:02.625Z,4.30
2019-01-29T08:41:40.200Z,4.37
2019-01-29T08:44:17.722Z,4.73
2019-01-29T08:46:55.249Z,4.70
2019-01-29T08:49:32.768Z,4.47
2019-01-29T08:52:11.645Z,3.87
2019-01-29T08:54:47.775Z,4.10
2019-01-29T08:57:25.397Z,4.60
2019-01-29T09:00:02.915Z,4.03
2019-01-29T09:02:40.432Z,4.57
2019-01-29T09:05:17.939Z,4.63
2019-01-29T09:07:55.476Z,5.63
2019-01-29T09:10:32.996Z,5.57
2019-01-29T09:13:10.522Z,6.13
2019-01-29T09:15:48.043Z,6.87
2019-01-29T09:18:25.580Z,6.50
2019-01-29T09:21:03.071Z,7.00
2019-01-29T09:23:40.613Z,5.57
2019-01-29T09:26:18.173Z,5.73
2019-01-29T09:28:55.668Z,5.63
2019-01-29T09:31:33.196Z,5.70
2019-01-29T09:34:10.692Z,5.60
2019-01-29T09:36:48.223Z,5.70
2019-01-29T09:39:25.744Z,5.63
2019-01-29T09:42:03.260Z,6.13
2019-01-29T09:44:40.750Z,6.37
2019-01-29T09:47:18.288Z,6.00
2019-01-29T09:49:55.786Z,6.00
2019-01-29T09:52:33.305Z,6.30
2019-01-29T09:55:14.182Z,6.57
2019-01-29T09:57:51.719Z,6.50
2019-01-29T10:00:35.754Z,6.53
2019-01-29T10:03:13.283Z,6.77
2019-01-29T10:05:50.803Z,6.70
2019-01-29T10:08:28.325Z,6.90
2019-01-29T10:11:05.846Z,6.50
2019-01-29T10:13:53.274Z,6.20
2019-01-29T10:16:30.805Z,6.57
2019-01-29T10:19:08.324Z,7.40
2019-01-29T10:21:45.854Z,6.70
2019-01-29T10:24:23.397Z,6.23
2019-01-29T10:27:00.975Z,5.60
2019-01-29T10:29:38.483Z,5.50
2019-01-29T10:32:16.020Z,5.33
2019-01-29T10:34:53.520Z,4.90
2019-01-29T10:37:31.061Z,4.60
2019-01-29T10:40:10.404Z,4.73
2019-01-29T10:42:47.928Z,3.97
2019-01-29T10:45:26.090Z,4.17
2019-01-29T10:48:03.642Z,4.87
2019-01-29T10:50:41.165Z,4.30
2019-01-29T10:53:18.688Z,4.67
2019-01-29T10:55:56.207Z,3.97
2019-01-29T10:58:33.774Z,4.27
2019-01-29T11:01:11.280Z,4.13
2019-01-29T11:03:48.804Z,4.60
2019-01-29T11:06:26.343Z,3.97
2019-01-29T11:09:04.340Z,4.40
2019-01-29T11:11:41.819Z,4.53
2019-01-29T11:14:19.346Z,4.60
2019-01-29T11:16:56.864Z,4.50
2019-01-29T11:19:34.663Z,4.33
2019-01-29T11:22:11.908Z,4.13
2019-01-29T11:24:49.516Z,3.93
2019-01-29T11:27:27.042Z,4.27
2019-01-29T11:30:04.558Z,4.07
2019-01-29T11:32:42.127Z,4.20
2019-01-29T11:35:19.659Z,3.83
2019-01-29T11:37:57.184Z,3.90
2019-01-29T11:40:34.757Z,4.30
2019-01-29T11:43:12.286Z,3.80
2019-01-29T11:45:53.489Z,4.20
2019-01-29T11:48:31.039Z,4.27
2019-01-29T11:51:08.554Z,4.00
2019-01-29T11:53:46.114Z,3.80
2019-01-29T11:56:23.627Z,3.70
2019-01-29T11:59:01.189Z,3.90
2019-01-29T12:01:38.706Z,3.53
2019-01-29T12:04:16.250Z,4.30
2019-01-29T12:06:53.785Z,3.80
2019-01-29T12:09:31.323Z,3.30
2019-01-29T12:12:08.836Z,3.90
2019-01-29T12:14:46.371Z,3.67
2019-01-29T12:17:23.902Z,3.50
2019-01-29T12:20:01.424Z,3.60
2019-01-29T12:22:38.961Z,3.57
2019-01-29T12:25:16.460Z,3.60
2019-01-29T12:27:53.984Z,3.80
2019-01-29T12:30:31.549Z,3.63
2019-01-29T12:33:11.126Z,3.27
2019-01-29T12:35:48.630Z,3.23
2019-01-29T12:38:26.156Z,3.60
2019-01-29T12:41:03.650Z,3.97
2019-01-29T12:43:41.173Z,3.40
2019-01-29T12:46:18.669Z,3.17
2019-01-29T12:48:56.490Z,4.00
2019-01-29T12:51:40.008Z,3.67
2019-01-29T12:54:17.540Z,4.57
2019-01-29T12:56:55.031Z,3.57
2019-01-29T12:59:32.551Z,3.93
2019-01-29T13:02:10.038Z,3.80
2019-01-29T13:04:47.582Z,4.03
2019-01-29T13:07:25.084Z,4.13
2019-01-29T13:10:02.586Z,4.00
2019-01-29T13:12:40.092Z,3.77
2019-01-29T13:15:20.768Z,4.23
2019-01-29T13:17:58.696Z,4.00
2019-01-29T13:20:36.225Z,3.80
2019-01-29T13:23:13.757Z,3.90
2019-01-29T13:25:51.265Z,4.07
2019-01-29T13:28:28.769Z,4.50
2019-01-29T13:31:06.294Z,4.50
2019-01-29T13:33:43.815Z,5.03
2019-01-29T13:36:21.351Z,4.87
2019-01-29T13:38:58.875Z,4.20
2019-01-29T13:41:36.389Z,3.80
2019-01-29T13:44:13.897Z,4.40
2019-01-29T13:46:51.404Z,4.20
2019-01-29T13:49:28.945Z,4.20
2019-01-29T13:52:06.494Z,3.87
2019-01-29T13:54:44.021Z,4.10
2019-01-29T13:57:21.506Z,4.90
2019-01-29T13:59:59.099Z,4.00
2019-01-29T14:02:36.598Z,3.47
2019-01-29T14:05:14.154Z,3.50
2019-01-29T14:07:51.662Z,3.50
2019-01-29T14:10:29.207Z,3.93
2019-01-29T14:13:06.695Z,4.23
2019-01-29T14:15:46.829Z,4.20
2019-01-29T14:18:27.190Z,4.37
2019-01-29T14:21:05.124Z,4.33
2019-01-29T14:23:42.657Z,4.70
2019-01-29T14:26:20.180Z,4.33
2019-01-29T14:28:57.715Z,5.00
2019-01-29T14:31:35.205Z,5.23
2019-01-29T14:34:12.746Z,5.30
2019-01-29T14:36:50.258Z,5.20
2019-01-29T14:40:16.457Z,4.83
2019-01-29T14:42:54.481Z,5.80
2019-01-29T14:45:32.010Z,5.13
2019-01-29T14:48:09.540Z,4.70
2019-01-29T14:50:47.062Z,4.60
2019-01-29T14:53:24.552Z,5.33
2019-01-29T14:56:02.058Z,5.17
2019-01-29T14:58:39.570Z,5.17
2019-01-29T15:01:17.085Z,4.90
2019-01-29T15:03:54.664Z,5.20
2019-01-29T15:06:32.993Z,4.80
2019-01-29T15:09:13.870Z,3.60
2019-01-29T15:11:51.369Z,4.30
2019-01-29T15:14:28.920Z,4.20
2019-01-29T15:17:44.702Z,4.27
2019-01-29T15:20:22.266Z,3.97
2019-01-29T15:22:59.774Z,4.10
2019-01-29T15:25:37.312Z,4.30
2019-01-29T15:28:14.818Z,4.40
2019-01-29T15:30:52.361Z,4.00
2019-01-29T15:33:29.858Z,3.90
2019-01-29T15:36:07.606Z,3.80
2019-01-29T15:38:45.100Z,4.00
2019-01-29T15:41:22.652Z,4.90
2019-01-29T15:44:00.168Z,5.80
2019-01-29T15:46:37.696Z,6.20
2019-01-29T15:49:15.238Z,7.10
2019-01-29T15:51:52.749Z,7.33
2019-01-29T15:54:30.297Z,8.10
2019-01-29T15:57:14.098Z,9.67
2019-01-29T15:59:45.345Z,10.73
2019-01-29T16:02:22.839Z,12.00
2019-01-29T16:05:00.389Z,15.40
2019-01-29T16:07:38.076Z,14.30
2019-01-29T16:10:19.082Z,11.50
2019-01-29T16:12:56.581Z,13.73
2019-01-29T16:15:34.171Z,15.50
2019-01-29T16:18:11.698Z,15.10
2019-01-29T16:20:49.227Z,15.70
2019-01-29T16:23:26.725Z,11.73
2019-01-29T16:26:04.244Z,9.87
2019-01-29T16:28:41.794Z,8.67
2019-01-29T16:31:19.265Z,8.03
2019-01-29T16:33:56.794Z,7.00
2019-01-29T16:36:34.331Z,7.07
2019-01-29T16:39:13.164Z,6.13
2019-01-29T16:41:50.704Z,5.93
2019-01-29T16:44:28.215Z,6.73
2019-01-29T16:47:05.744Z,6.27
2019-01-29T16:49:45.923Z,6.70
2019-01-29T16:52:23.417Z,6.73
2019-01-29T16:55:00.937Z,7.00
2019-01-29T16:57:38.456Z,6.87
2019-01-29T17:00:32.718Z,6.40
2019-01-29T17:03:10.236Z,6.40
2019-01-29T17:05:47.766Z,17.47
2019-01-29T17:08:25.265Z,24.17
2019-01-29T17:11:02.829Z,10.27
2019-01-29T17:13:40.339Z,55.30
2019-01-29T17:16:17.906Z,29.10
2019-01-29T17:18:55.458Z,99.00
2019-01-29T17:21:36.503Z,39.27
2019-01-29T17:24:14.827Z,42.10
2019-01-29T17:26:52.340Z,19.97
2019-01-29T17:29:29.847Z,13.07
2019-01-29T17:32:07.365Z,11.07
2019-01-29T17:34:44.878Z,10.33
2019-01-29T17:37:22.428Z,9.23
2019-01-29T17:39:59.964Z,19.00
2019-01-29T17:42:37.486Z,19.50
2019-01-29T17:45:18.469Z,9.37
2019-01-29T17:47:56.189Z,7.87
2019-01-29T17:50:36.440Z,8.13
2019-01-29T17:53:13.953Z,8.17
2019-01-29T17:55:51.552Z,8.43
2019-01-29T17:58:29.042Z,7.33
2019-01-29T18:01:06.594Z,8.70
2019-01-29T18:03:44.118Z,8.87
2019-01-29T18:06:21.647Z,8.60
2019-01-29T18:08:59.145Z,8.87
2019-01-29T18:11:36.711Z,10.03
2019-01-29T18:14:14.316Z,8.47
2019-01-29T18:16:52.121Z,9.40
2019-01-29T18:19:29.766Z,9.07
2019-01-29T18:22:07.338Z,8.43
2019-01-29T18:24:44.893Z,9.00
2019-01-29T18:27:22.474Z,8.37
2019-01-29T18:30:00.184Z,7.90
2019-01-29T18:32:37.603Z,7.70
2019-01-29T18:35:15.460Z,9.10
2019-01-29T18:37:53.045Z,8.17
2019-01-29T18:40:38.803Z,7.30
2019-01-29T18:43:16.326Z,7.57
2019-01-29T18:45:53.867Z,8.37
2019-01-29T18:48:31.388Z,7.33
2019-01-29T18:51:08.921Z,11.43
2019-01-29T18:53:46.449Z,34.33
2019-01-29T18:56:24.008Z,11.77
2019-01-29T18:59:01.760Z,18.40
2019-01-29T19:01:39.509Z,13.33
2019-01-29T19:04:17.680Z,21.63
2019-01-29T19:06:55.402Z,11.90
2019-01-29T19:09:33.017Z,9.83
2019-01-29T19:12:10.615Z,7.37
2019-01-29T19:14:48.065Z,6.67
2019-01-29T19:17:25.610Z,7.20
2019-01-29T19:20:03.182Z,6.67
2019-01-29T19:22:40.806Z,7.47
2019-01-29T19:25:19.041Z,7.03
2019-01-29T19:27:56.609Z,7.33
2019-01-29T19:30:35.394Z,8.17
2019-01-29T19:33:12.946Z,8.27
2019-01-29T19:35:50.476Z,7.10
2019-01-29T19:38:28.009Z,6.53
2019-01-29T19:41:05.548Z,6.00
2019-01-29T19:43:43.146Z,6.60
2019-01-29T19:46:20.715Z,6.23
2019-01-29T19:48:58.314Z,5.40
2019-01-29T19:51:35.872Z,5.87
2019-01-29T19:54:13.429Z,5.90
2019-01-29T19:56:51.029Z,7.00
2019-01-29T19:59:28.572Z,6.50
2019-01-29T20:02:06.175Z,6.70
2019-01-29T20:04:43.656Z,6.83
2019-01-29T20:07:21.205Z,7.00
2019-01-29T20:09:58.951Z,8.17
2019-01-29T20:12:37.015Z,7.60
2019-01-29T20:15:16.905Z,7.00
2019-01-29T20:17:56.988Z,7.33
2019-01-29T20:20:42.702Z,7.70
2019-01-29T20:23:20.167Z,7.37
2019-01-29T20:25:57.660Z,7.17
2019-01-29T20:28:42.181Z,7.93
2019-01-29T20:31:14.962Z,7.83
2019-01-29T20:33:50.297Z,7.93
2019-01-29T20:36:27.841Z,7.40
2019-01-29T20:39:06.778Z,7.60
2019-01-29T20:41:44.319Z,7.10
2019-01-29T20:44:21.848Z,7.70
2019-01-29T20:47:02.808Z,6.60
2019-01-29T20:49:40.318Z,6.60
2019-01-29T20:52:17.848Z,8.30
2019-01-29T20:54:55.388Z,9.03
2019-01-29T20:57:32.940Z,8.07
2019-01-29T21:00:16.935Z,9.10
2019-01-29T21:02:54.472Z,8.73
2019-01-29T21:05:31.978Z,8.23
2019-01-29T21:08:09.700Z,7.33
2019-01-29T21:10:47.225Z,6.67
2019-01-29T21:13:24.747Z,8.73
2019-01-29T21:16:02.256Z,8.63
2019-01-29T21:18:39.761Z,8.00
2019-01-29T21:21:17.262Z,7.63
2019-01-29T21:23:54.810Z,6.97
2019-01-29T21:26:32.321Z,8.07
2019-01-29T21:29:09.863Z,7.73
2019-01-29T21:31:47.400Z,7.20
2019-01-29T21:34:24.931Z,7.13
2019-01-29T21:37:02.461Z,7.37
2019-01-29T21:39:39.975Z,8.00
2019-01-29T21:42:17.536Z,8.17
2019-01-29T21:44:55.050Z,6.97
2019-01-29T21:47:32.581Z,7.30
2019-01-29T21:50:16.883Z,7.40
2019-01-29T21:52:54.399Z,7.23
2019-01-29T21:55:32.001Z,8.23
2019-01-29T21:58:10.142Z,7.50
2019-01-29T22:00:48.836Z,7.00
2019-01-29T22:03:26.376Z,7.67
2019-01-29T22:06:03.870Z,7.70
2019-01-29T22:08:41.368Z,7.33
2019-01-29T22:11:18.865Z,8.20
2019-01-29T22:13:56.387Z,6.60
2019-01-29T22:16:33.916Z,7.37
2019-01-29T22:19:11.482Z,7.80
2019-01-29T22:21:48.993Z,7.93
2019-01-29T22:24:26.545Z,7.80
2019-01-29T22:27:04.051Z,8.70
2019-01-29T22:29:41.591Z,8.43
2019-01-29T22:32:19.132Z,9.33
2019-01-29T22:34:56.651Z,8.50
2019-01-29T22:37:34.149Z,8.37
2019-01-29T22:40:19.328Z,8.50
2019-01-29T22:42:57.210Z,8.73
2019-01-29T22:45:34.719Z,9.70
2019-01-29T22:48:12.877Z,9.70
2019-01-29T22:50:50.376Z,10.43
2019-01-29T22:53:27.941Z,9.57
2019-01-29T22:56:05.455Z,9.20
2019-01-29T22:58:43.006Z,10.80
2019-01-29T23:01:43.708Z,11.37
2019-01-29T23:04:31.586Z,10.93
2019-01-29T23:07:30.129Z,9.37
2019-01-29T23:10:20.507Z,10.73
2019-01-29T23:12:58.085Z,9.80
2019-01-29T23:15:35.610Z,11.40
2019-01-29T23:18:13.178Z,10.53
2019-01-29T23:20:50.703Z,10.77
2019-01-29T23:23:28.257Z,9.93
2019-01-29T23:26:05.773Z,10.37
2019-01-29T23:28:43.296Z,10.60
2019-01-29T23:31:20.808Z,9.73
2019-01-29T23:33:58.336Z,9.87
2019-01-29T23:36:35.863Z,9.73
2019-01-29T23:39:13.648Z,10.33
2019-01-29T23:41:51.163Z,10.10
2019-01-29T23:44:28.700Z,11.30
2019-01-29T23:47:06.220Z,10.97
2019-01-29T23:49:43.774Z,10.57
2019-01-29T23:52:21.276Z,10.70
2019-01-29T23:54:58.815Z,10.33
2019-01-29T23:57:36.334Z,9.90
